CheckWX is a tool to help pilots better visualize weather data.  It is not intended as a substitute for an official pre-flight weather briefing.

12:47:03 UTC

KGUY METAR
Guymon Municipal Airport
Guymon, Oklahoma, USA
Current

54 mins ago

KGUY 221153Z AUTO 09007KT 10SM OVC008 02/M02 A2992 RMK AO2 SLP122 T00171017 10044 20000 58004
Observed
Feb-22 @ 11:53 UTC
Wind
  • 090° at 7 KTS
Visibility
10 SM
Flight Rules
IFR
Cloud Levels
  • Overcast at 800' AGL
Temperature
C / 36°F
Dewpoint
-2°C / 28°F
Humidity
75%
Altimeter
29.92" Hg
Pressure
1012.2 hPa
Previous

1 hour ago

KGUY 221140Z AUTO 11007KT 10SM OVC009 01/M02 A2993 RMK AO2 T00111017
Observed
Feb-22 @ 11:40 UTC
Wind
  • 110° at 7 KTS
Visibility
10 SM
Flight Rules
IFR
Cloud Levels
  • Overcast at 900' AGL
Temperature
C / 34°F
Dewpoint
-2°C / 28°F
Humidity
81%
Altimeter
29.93" Hg
Pressure
1013.52 hPa
Previous

2 hours ago

KGUY 221106Z AUTO 13008KT 10SM BKN011 BKN100 OVC120 01/M03 A2996 RMK AO2 T00061028
Observed
Feb-22 @ 11:06 UTC
Wind
  • 130° at 8 KTS
Visibility
10 SM
Flight Rules
MVFR
Cloud Levels
  • Broken at 1,100' AGL
  • Broken at 10,000' AGL
  • Overcast at 12,000' AGL
Temperature
C / 34°F
Dewpoint
-3°C / 27°F
Humidity
75%
Altimeter
29.96" Hg
Pressure
1014.52 hPa